Time;durP1;ratioP1;P1;durP2;ratioP2;P2;SDS_P1;SDS_P2;PMS_P1;PMS_P2;Temp;Humidity;BMP_temperature;BMP_pressure;BME280_temperature;BME280_humidity;BME280_pressure;Samples;Min_cycle;Max_cycle;Signal;HPM_P1;HPM_P2
2022/12/13 03:50:23;;;;;;;38.13;18.00;;;;;;;-9.29;100.00;95514.59;4968815;28;20043;-91
2022/12/13 04:32:37;;;;;;;38.65;18.15;;;;;;;-9.43;100.00;95481.16;4963511;28;20046;-91
2022/12/13 04:48:04;;;;;;;38.72;18.35;;;;;;;-9.50;100.00;95479.75;4858539;29;20563;-93
2022/12/13 05:03:13;;;;;;;36.17;17.63;;;;;;;-9.67;100.00;95474.47;4882960;29;20124;-90
2022/12/13 05:10:58;;;;;;;38.17;18.00;;;;;;;-9.63;100.00;95465.81;4821374;29;21126;-91
2022/12/13 05:19:06;;;;;;;38.20;18.98;;;;;;;-9.73;100.00;95466.16;4819588;29;20045;-90
2022/12/13 05:27:04;;;;;;;53.05;23.80;;;;;;;-9.73;100.00;95473.78;4866441;29;20047;-90
2022/12/13 05:30:05;;;;;;;46.38;21.45;;;;;;;-9.75;100.00;95462.03;4850004;29;20065;-92
2022/12/13 05:33:18;;;;;;;48.83;23.23;;;;;;;-9.71;100.00;95462.75;4857828;29;20037;-93
2022/12/13 05:36:17;;;;;;;44.65;21.83;;;;;;;-9.76;100.00;95458.66;4803099;29;20058;-90
2022/12/13 05:38:42;;;;;;;44.67;22.15;;;;;;;-9.80;100.00;95457.09;4808697;29;20117;-91
2022/12/13 05:41:15;;;;;;;45.58;20.67;;;;;;;-9.81;100.00;95460.53;4837245;29;20049;-91
2022/12/13 05:43:41;;;;;;;41.78;20.27;;;;;;;-9.76;100.00;95455.25;4945547;28;20052;-90
2022/12/13 05:46:14;;;;;;;45.80;21.63;;;;;;;-9.77;100.00;95459.53;5008113;28;20041;-90
2022/12/13 05:48:40;;;;;;;41.80;20.92;;;;;;;-9.79;100.00;95461.31;5039862;28;20036;-90
2022/12/13 05:51:10;;;;;;;40.47;19.98;;;;;;;-9.82;100.00;95461.41;5038596;28;20044;-91
2022/12/13 05:53:43;;;;;;;43.33;20.70;;;;;;;-9.79;100.00;95450.28;5060822;28;20498;-90
2022/12/13 05:56:10;;;;;;;43.28;20.52;;;;;;;-9.85;100.00;95446.25;5047144;28;20530;-91
2022/12/13 05:58:39;;;;;;;46.33;21.73;;;;;;;-9.85;100.00;95441.19;5031558;28;21042;-90
2022/12/13 06:01:16;;;;;;;39.60;19.35;;;;;;;-9.75;100.00;95447.59;5044567;28;21810;-90
2022/12/13 06:03:43;;;;;;;41.47;20.35;;;;;;;-9.70;100.00;95446.59;5054134;28;20066;-91
2022/12/13 06:06:10;;;;;;;42.67;20.02;;;;;;;-9.74;100.00;95448.41;5041968;28;20059;-91
2022/12/13 06:08:37;;;;;;;38.60;17.75;;;;;;;-9.71;100.00;95444.94;5062029;28;20027;-90
2022/12/13 06:11:15;;;;;;;36.05;18.92;;;;;;;-9.69;100.00;95449.09;5033781;28;20047;-90
2022/12/13 06:13:41;;;;;;;35.60;17.65;;;;;;;-9.70;100.00;95444.84;5058657;28;20078;-90
2022/12/13 06:16:11;;;;;;;36.28;16.25;;;;;;;-9.66;100.00;95450.66;5074347;28;20089;-90
2022/12/13 06:18:36;;;;;;;38.80;18.83;;;;;;;-9.64;100.00;95448.91;5074069;28;20154;-90
2022/12/13 06:21:05;;;;;;;39.00;17.87;;;;;;;-9.62;100.00;95462.38;5045420;28;20078;-90
2022/12/13 06:23:32;;;;;;;38.90;19.17;;;;;;;-9.68;100.00;95462.63;5033181;28;20082;-91
2022/12/13 06:25:58;;;;;;;33.95;19.63;;;;;;;-9.67;100.00;95449.00;5043614;28;20071;-91
2022/12/13 06:28:24;;;;;;;38.30;18.00;;;;;;;-9.66;100.00;95451.50;5005874;28;20067;-90
2022/12/13 06:31:08;;;;;;;36.00;16.33;;;;;;;-9.74;100.00;95456.03;5007912;28;20028;-90
2022/12/13 06:33:35;;;;;;;39.00;19.60;;;;;;;-9.79;100.00;95456.22;5038874;28;20028;-91
2022/12/13 06:36:02;;;;;;;35.80;18.38;;;;;;;-9.76;100.00;95456.13;5016169;28;20025;-91
2022/12/13 06:38:28;;;;;;;36.38;16.50;;;;;;;-9.76;100.00;95460.34;5015269;28;20036;-89
2022/12/13 06:40:54;;;;;;;32.17;17.97;;;;;;;-9.73;100.00;95473.78;5033121;28;20106;-90
2022/12/13 06:43:20;;;;;;;38.70;17.07;;;;;;;-9.72;100.00;95469.56;5023172;28;20044;-90
2022/12/13 06:45:57;;;;;;;31.38;15.98;;;;;;;-9.74;100.00;95461.97;5042393;28;20044;-90
2022/12/13 06:48:26;;;;;;;33.58;15.90;;;;;;;-9.81;100.00;95460.53;5031285;28;20044;-91
2022/12/13 06:50:52;;;;;;;35.42;16.42;;;;;;;-9.80;100.00;95459.63;5045786;28;20063;-92
2022/12/13 06:53:18;;;;;;;29.90;16.17;;;;;;;-9.82;100.00;95463.97;5047493;28;20041;-91
2022/12/13 06:59:30;;;;;;;33.90;14.55;;;;;;;-9.89;100.00;95467.63;5097962;28;20038;-91
2022/12/13 07:01:56;;;;;;;30.67;16.10;;;;;;;-9.86;100.00;95470.03;5082285;28;20064;-91
2022/12/13 07:04:22;;;;;;;31.23;15.63;;;;;;;-9.82;100.00;95473.31;5071714;28;20175;-90
2022/12/13 07:06:50;;;;;;;45.03;18.50;;;;;;;-9.87;100.00;95465.00;5046032;28;20025;-90
2022/12/13 07:09:15;;;;;;;39.10;17.90;;;;;;;-9.89;100.00;95485.44;5057204;28;20040;-89
2022/12/13 07:11:57;;;;;;;36.47;16.50;;;;;;;-9.80;100.00;95484.25;5056277;28;20050;-88
2022/12/13 07:14:22;;;;;;;31.05;15.63;;;;;;;-9.78;100.00;95487.56;5049125;28;20035;-89
2022/12/13 07:16:48;;;;;;;34.50;15.97;;;;;;;-9.77;100.00;95487.50;5046762;28;20036;-88
2022/12/13 07:19:22;;;;;;;34.80;15.67;;;;;;;-9.78;100.00;95493.50;5053095;28;20089;-88
2022/12/13 07:21:47;;;;;;;37.72;18.00;;;;;;;-9.83;100.00;95484.34;5050722;28;20036;-88
2022/12/13 07:24:13;;;;;;;38.43;18.47;;;;;;;-9.78;100.00;95483.31;5055792;28;20056;-88
2022/12/13 07:26:46;;;;;;;37.00;16.70;;;;;;;-9.67;100.00;95477.00;5046601;28;20115;-88
2022/12/13 07:29:12;;;;;;;26.15;12.95;;;;;;;-9.73;100.00;95483.97;5067319;28;20033;-88
2022/12/13 07:31:37;;;;;;;41.57;17.10;;;;;;;-9.71;100.00;95478.84;5070026;28;20101;-88
2022/12/13 07:34:11;;;;;;;42.37;18.30;;;;;;;-9.64;100.00;95474.34;5058598;28;20354;-88
2022/12/13 07:36:37;;;;;;;37.85;17.40;;;;;;;-9.65;100.00;95478.63;5053974;28;20037;-89
2022/12/13 07:39:03;;;;;;;37.73;17.10;;;;;;;-9.63;100.00;95488.72;5061192;28;20116;-88
2022/12/13 07:41:28;;;;;;;39.17;16.83;;;;;;;-9.64;100.00;95482.81;5057232;28;20116;-88
2022/12/13 07:43:55;;;;;;;37.30;16.73;;;;;;;-9.60;100.00;95491.97;5036403;28;20481;-88
2022/12/13 07:46:22;;;;;;;36.42;17.30;;;;;;;-9.46;100.00;95494.00;5053938;28;20036;-88
2022/12/13 07:48:47;;;;;;;37.05;15.55;;;;;;;-9.41;100.00;95484.50;5062266;28;20567;-89
2022/12/13 07:51:15;;;;;;;34.20;17.00;;;;;;;-9.30;100.00;95479.81;5041516;28;20123;-88
2022/12/13 07:53:58;;;;;;;35.60;16.27;;;;;;;-9.20;100.00;95490.50;5054604;28;20093;-88
2022/12/13 07:56:24;;;;;;;30.30;12.60;;;;;;;-8.95;100.00;95482.75;5040820;28;20470;-88
2022/12/13 07:58:58;;;;;;;33.67;16.10;;;;;;;-8.61;100.00;95481.41;5042092;28;20085;-88
2022/12/13 08:01:25;;;;;;;33.50;16.95;;;;;;;-8.34;100.00;95477.66;5040785;28;20036;-87
2022/12/13 08:03:56;;;;;;;33.75;15.38;;;;;;;-8.10;100.00;95480.06;5074918;28;20032;-88
2022/12/13 08:06:21;;;;;;;31.80;15.38;;;;;;;-7.73;100.00;95483.59;5055412;28;20536;-88
2022/12/13 08:08:49;;;;;;;36.80;16.47;;;;;;;-7.44;100.00;95479.75;5040280;28;20032;-88
2022/12/13 08:11:19;;;;;;;30.63;15.02;;;;;;;-7.33;100.00;95476.69;5031135;28;20116;-88
2022/12/13 08:13:44;;;;;;;25.80;14.40;;;;;;;-7.36;100.00;95477.66;5053588;28;20032;-87
2022/12/13 08:16:13;;;;;;;31.70;14.10;;;;;;;-7.48;100.00;95463.72;5040060;28;20102;-88
2022/12/13 08:18:39;;;;;;;31.10;14.85;;;;;;;-7.17;100.00;95475.94;5054287;28;20097;-88
2022/12/13 08:21:10;;;;;;;30.23;14.43;;;;;;;-6.57;100.00;95467.13;5056567;28;20486;-88
2022/12/13 08:23:38;;;;;;;33.42;16.98;;;;;;;-6.86;100.00;95460.88;5050423;28;20255;-87
2022/12/13 08:26:05;;;;;;;32.70;14.95;;;;;;;-6.74;100.00;95465.38;5058558;28;20678;-87
2022/12/13 08:28:32;;;;;;;32.75;15.38;;;;;;;-6.62;100.00;95469.94;5071272;28;20024;-88
2022/12/13 08:31:06;;;;;;;28.15;14.07;;;;;;;-6.82;100.00;95478.53;5051227;28;20047;-85
2022/12/13 08:33:33;;;;;;;29.95;14.70;;;;;;;-6.34;100.00;95473.69;5069841;28;20474;-88
2022/12/13 08:36:10;;;;;;;33.55;15.70;;;;;;;-6.50;100.00;95484.69;5049866;28;20475;-88
2022/12/13 08:38:37;;;;;;;28.85;14.55;;;;;;;-6.01;100.00;95477.13;5061275;28;20032;-87
2022/12/13 08:41:05;;;;;;;27.00;13.15;;;;;;;-5.79;100.00;95473.44;5058362;28;20042;-88
2022/12/13 08:43:30;;;;;;;29.35;13.73;;;;;;;-6.04;100.00;95482.38;5056824;28;20032;-88
2022/12/13 08:46:02;;;;;;;34.47;16.97;;;;;;;-6.13;100.00;95482.88;5047094;28;20082;-88
2022/12/13 08:48:28;;;;;;;31.57;15.70;;;;;;;-5.68;100.00;95474.53;5064907;28;20028;-88
2022/12/13 08:50:58;;;;;;;30.73;15.17;;;;;;;-5.69;100.00;95474.63;5073128;28;20550;-88
2022/12/13 08:53:33;;;;;;;30.43;15.97;;;;;;;-5.13;100.00;95469.94;5064826;28;20454;-88
2022/12/13 08:56:00;;;;;;;26.40;15.17;;;;;;;-5.19;100.00;95475.41;5043956;28;20467;-88
2022/12/13 08:58:26;;;;;;;28.63;14.70;;;;;;;-4.60;100.00;95459.28;5055377;28;21546;-88
2022/12/13 09:00:52;;;;;;;31.07;15.47;;;;;;;-5.09;100.00;95459.47;5068671;28;20470;-88
2022/12/13 09:03:20;;;;;;;29.03;14.57;;;;;;;-4.70;100.00;95455.59;5057743;28;20037;-88
2022/12/13 09:05:47;;;;;;;28.13;14.90;;;;;;;-4.80;100.00;95467.28;5062516;28;20577;-88
2022/12/13 09:08:14;;;;;;;25.47;14.13;;;;;;;-3.97;100.00;95462.56;5060700;28;20510;-88
2022/12/13 09:10:40;;;;;;;32.47;16.10;;;;;;;-3.84;100.00;95454.03;5061406;28;20558;-88
2022/12/13 09:13:06;;;;;;;30.87;14.50;;;;;;;-3.57;100.00;95443.84;5056795;28;21027;-88
2022/12/13 09:15:39;;;;;;;26.93;14.10;;;;;;;-4.20;100.00;95449.31;5056388;28;20454;-88
2022/12/13 09:18:05;;;;;;;25.05;11.93;;;;;;;-3.95;100.00;95440.19;5064752;28;20059;-88
2022/12/13 09:20:31;;;;;;;25.20;13.37;;;;;;;-3.81;100.00;95441.00;5057005;28;20062;-88
2022/12/13 09:22:56;;;;;;;24.20;13.77;;;;;;;-3.78;100.00;95442.56;5043131;28;20039;-89
2022/12/13 09:25:23;;;;;;;27.93;13.03;;;;;;;-3.99;100.00;95444.69;5050958;28;20495;-88
2022/12/13 09:27:49;;;;;;;28.27;14.67;;;;;;;-4.31;100.00;95444.81;5064247;28;20028;-88
2022/12/13 09:30:15;;;;;;;25.37;12.97;;;;;;;-4.24;100.00;95442.72;5054259;28;20548;-88
2022/12/13 09:32:48;;;;;;;27.33;13.97;;;;;;;-3.86;100.00;95445.59;5044274;28;21978;-88
2022/12/13 09:35:26;;;;;;;24.20;12.40;;;;;;;-3.64;100.00;95440.00;5071934;28;20128;-87
2022/12/13 09:37:52;;;;;;;22.70;11.87;;;;;;;-3.34;100.00;95439.06;5034849;28;20454;-88
2022/12/13 09:40:22;;;;;;;26.33;13.27;;;;;;;-3.69;100.00;95436.91;5035542;28;20447;-89
2022/12/13 09:42:54;;;;;;;26.20;13.50;;;;;;;-4.00;100.00;95439.63;5049365;28;20492;-88
2022/12/13 09:45:28;;;;;;;26.90;12.43;;;;;;;-4.01;100.00;95430.28;5054818;28;20489;-88
2022/12/13 09:47:58;;;;;;;22.57;11.43;;;;;;;-4.55;100.00;95436.78;5072007;28;20473;-88
2022/12/13 09:50:49;;;;;;;25.13;13.27;;;;;;;-4.19;100.00;95435.56;5061441;28;20518;-88
2022/12/13 09:53:19;;;;;;;23.23;12.30;;;;;;;-3.69;100.00;95431.75;5073629;28;20462;-88
2022/12/13 09:55:51;;;;;;;27.17;13.33;;;;;;;-4.04;100.00;95429.53;5054037;28;20467;-88
2022/12/13 09:58:28;;;;;;;23.07;12.17;;;;;;;-4.24;100.00;95426.47;5091508;28;20463;-88
2022/12/13 10:00:56;;;;;;;20.50;11.17;;;;;;;-3.97;100.00;95442.84;5078766;28;20490;-89
2022/12/13 10:03:26;;;;;;;22.30;12.93;;;;;;;-4.05;100.00;95430.44;5070830;28;20467;-88
2022/12/13 10:06:12;;;;;;;22.60;11.80;;;;;;;-3.76;100.00;95435.59;5070532;28;20577;-87
2022/12/13 10:08:57;;;;;;;25.10;13.27;;;;;;;-3.22;100.00;95432.31;5040558;28;20466;-88
2022/12/13 10:11:22;;;;;;;23.37;12.30;;;;;;;-3.49;100.00;95427.13;5037069;28;20467;-87
2022/12/13 10:14:07;;;;;;;25.03;12.57;;;;;;;-3.44;100.00;95423.38;5046974;28;20461;-89
2022/12/13 10:16:46;;;;;;;23.67;11.97;;;;;;;-3.61;100.00;95419.25;5058379;28;20101;-90
2022/12/13 10:19:15;;;;;;;20.57;11.73;;;;;;;-3.73;100.00;95419.16;5054685;28;20474;-86
2022/12/13 10:21:50;;;;;;;21.70;11.60;;;;;;;-3.57;100.00;95418.16;5060594;28;20454;-88
2022/12/13 10:24:26;;;;;;;21.03;11.77;;;;;;;-3.34;100.00;95421.06;5052175;28;21196;-86
2022/12/13 10:27:12;;;;;;;24.80;12.57;;;;;;;-3.28;100.00;95410.41;5043629;28;20467;-86
2022/12/13 10:30:02;;;;;;;23.63;11.27;;;;;;;-3.18;100.00;95408.91;5047555;28;20462;-87
2022/12/13 10:32:32;;;;;;;21.03;11.13;;;;;;;-3.22;100.00;95404.03;5024985;28;20451;-87
2022/12/13 10:34:59;;;;;;;22.63;12.00;;;;;;;-3.37;100.00;95408.38;5045655;28;20469;-86
2022/12/13 10:37:28;;;;;;;22.80;12.47;;;;;;;-3.60;100.00;95402.09;5032199;28;20465;-88
2022/12/13 10:39:53;;;;;;;21.97;11.93;;;;;;;-2.99;100.00;95398.25;5028327;28;20443;-87
2022/12/13 10:42:24;;;;;;;24.63;12.57;;;;;;;-3.36;100.00;95404.88;5027331;28;21116;-87
2022/12/13 10:45:16;;;;;;;20.57;12.67;;;;;;;-3.04;100.00;95396.91;5016818;28;20657;-86
2022/12/13 10:47:44;;;;;;;21.43;11.37;;;;;;;-2.80;100.00;95397.91;5016269;28;20541;-87
2022/12/13 10:50:23;;;;;;;21.40;11.77;;;;;;;-2.96;100.00;95392.91;5053641;28;21080;-87
2022/12/13 10:52:49;;;;;;;23.63;13.10;;;;;;;-2.75;100.00;95395.03;5054105;28;20475;-88
2022/12/13 10:55:35;;;;;;;23.17;12.57;;;;;;;-2.63;100.00;95387.34;5069754;28;20449;-88
2022/12/13 10:58:08;;;;;;;22.67;11.07;;;;;;;-3.14;100.00;95389.78;5037138;28;20467;-87
2022/12/13 11:00:40;;;;;;;21.48;11.95;;;;;;;-2.99;100.00;95384.56;5071401;28;21397;-87
2022/12/13 11:04:03;;;;;;;29.23;15.03;;;;;;;-2.71;100.00;95383.66;5071564;28;20031;-87
2022/12/13 11:06:47;;;;;;;21.10;11.23;;;;;;;-2.79;100.00;95381.56;4998191;28;20601;-89
2022/12/13 11:09:33;;;;;;;27.75;12.88;;;;;;;-2.92;100.00;95383.25;5015969;28;21189;-86
2022/12/13 11:12:21;;;;;;;27.50;13.70;;;;;;;-2.83;100.00;95379.28;4986738;28;21130;-87
2022/12/13 11:14:59;;;;;;;37.23;17.10;;;;;;;-3.28;100.00;95387.25;5013866;28;20529;-88
2022/12/13 11:17:29;;;;;;;25.47;13.10;;;;;;;-3.02;100.00;95382.19;4999035;28;20471;-87
2022/12/13 11:19:59;;;;;;;21.83;12.43;;;;;;;-2.73;100.00;95380.34;5016474;28;21102;-87
2022/12/13 11:22:30;;;;;;;26.40;13.43;;;;;;;-2.81;100.00;95378.28;4995027;28;20459;-87
2022/12/13 11:25:06;;;;;;;25.93;13.47;;;;;;;-3.32;100.00;95383.22;5001807;28;21232;-87
2022/12/13 11:27:57;;;;;;;26.33;14.73;;;;;;;-2.98;100.00;95371.63;4996956;28;20486;-86
2022/12/13 11:30:35;;;;;;;24.53;14.97;;;;;;;-3.29;100.00;95359.88;5000844;28;21055;-86
2022/12/13 11:33:19;;;;;;;27.77;13.83;;;;;;;-3.54;100.00;95370.88;5029847;28;20479;-87
2022/12/13 11:36:09;;;;;;;23.63;13.00;;;;;;;-3.97;100.00;95370.94;5047927;28;20731;-86
2022/12/13 11:39:14;;;;;;;26.47;14.10;;;;;;;-3.80;100.00;95368.16;5023730;28;22258;-86
2022/12/13 11:41:43;;;;;;;;;;;;;;;-4.18;100.00;95361.94;5007206;28;20481;-86
2022/12/13 11:44:18;;;;;;;27.13;13.27;;;;;;;-4.09;100.00;95371.66;5009463;28;19996;-86
2022/12/13 11:46:56;;;;;;;22.97;12.37;;;;;;;-3.86;100.00;95362.56;4999136;28;20482;-87
2022/12/13 11:49:42;;;;;;;24.23;13.83;;;;;;;-4.12;100.00;95353.88;4988382;28;21069;-86
2022/12/13 11:52:53;;;;;;;26.37;13.53;;;;;;;-4.16;100.00;95363.47;5016002;28;20481;-85
2022/12/13 11:55:39;;;;;;;22.10;11.73;;;;;;;-4.16;100.00;95354.97;4941547;28;20987;-86
2022/12/13 11:58:21;;;;;;;20.97;11.97;;;;;;;-4.40;100.00;95362.38;4953572;28;20473;-86
2022/12/13 12:01:11;;;;;;;24.17;13.33;;;;;;;-4.24;100.00;95363.13;4989557;28;20486;-85
2022/12/13 12:03:45;;;;;;;26.83;13.70;;;;;;;-4.35;100.00;95355.25;4965392;28;20863;-86
2022/12/13 12:06:19;;;;;;;22.47;13.37;;;;;;;-4.23;100.00;95357.06;4927055;28;20591;-85
2022/12/13 12:08:50;;;;;;;26.30;14.37;;;;;;;-4.08;100.00;95355.34;5001143;28;20462;-86
2022/12/13 12:11:43;;;;;;;26.63;13.80;;;;;;;-4.33;100.00;95349.09;5066442;28;21045;-85
2022/12/13 12:14:35;;;;;;;26.60;13.00;;;;;;;-4.30;100.00;95348.91;5057387;28;20462;-85
2022/12/13 12:17:03;;;;;;;21.33;11.60;;;;;;;-4.16;100.00;95355.78;5036326;28;20469;-86
2022/12/13 12:19:40;;;;;;;22.77;13.33;;;;;;;-4.40;100.00;95354.69;5067465;28;21413;-86
2022/12/13 12:22:44;;;;;;;24.63;13.23;;;;;;;-4.23;100.00;95354.50;5078151;28;20516;-86
2022/12/13 12:25:40;;;;;;;28.20;13.13;;;;;;;-3.84;100.00;95350.47;5083020;28;20507;-85
2022/12/13 12:28:45;;;;;;;21.90;12.00;;;;;;;-4.34;100.00;95356.88;5101571;28;20496;-86
2022/12/13 12:31:31;;;;;;;22.80;11.70;;;;;;;-4.43;100.00;95352.28;5064635;28;20454;-86
2022/12/13 12:34:04;;;;;;;24.43;12.17;;;;;;;-4.13;100.00;95344.50;5023644;28;20479;-85
2022/12/13 12:36:52;;;;;;;25.83;12.73;;;;;;;-4.35;100.00;95342.41;5059081;28;20474;-87
2022/12/13 12:39:40;;;;;;;21.90;12.43;;;;;;;-3.97;100.00;95345.25;5052997;28;21160;-87
2022/12/13 17:33:25;;;;;;;38.38;21.23;;;;;;;-6.03;100.00;95269.06;5037598;28;20593;-88
2022/12/13 17:35:54;;;;;;;16.25;9.73;;;;;;;-6.05;100.00;95265.75;5039884;28;20082;-89
2022/12/13 17:38:20;;;;;;;24.38;17.60;;;;;;;-6.00;100.00;95262.91;5047048;28;20047;-89
2022/12/13 17:40:53;;;;;;;17.23;10.10;;;;;;;-6.08;100.00;95254.84;5042397;28;20044;-88
2022/12/13 17:43:23;;;;;;;;;;;;;;;-6.05;100.00;95265.75;5017053;28;20119;-88
2022/12/13 17:46:01;;;;;;;20.03;12.07;;;;;;;-5.97;100.00;95263.59;5042821;28;19928;-88
2022/12/13 17:48:27;;;;;;;19.88;10.43;;;;;;;-5.98;100.00;95268.78;5042055;28;20555;-87
2022/12/13 17:50:53;;;;;;;21.97;11.47;;;;;;;-5.98;100.00;95271.34;5037854;28;20036;-91
2022/12/13 17:53:32;;;;;;;19.80;9.67;;;;;;;-5.95;100.00;95266.88;5052439;28;20549;-88
2022/12/13 17:56:02;;;;;;;19.10;9.43;;;;;;;-5.90;100.00;95268.34;5052236;28;20488;-88
2022/12/13 17:58:30;;;;;;;17.20;9.07;;;;;;;-5.99;100.00;95270.53;5032914;28;20498;-87
2022/12/13 18:01:13;;;;;;;16.43;8.23;;;;;;;-6.04;100.00;95269.94;5051543;28;20455;-87
2022/12/13 18:03:40;;;;;;;18.95;10.18;;;;;;;-6.02;100.00;95260.47;5038833;28;20446;-87
2022/12/13 18:06:06;;;;;;;18.63;9.13;;;;;;;-6.02;100.00;95260.47;5030263;28;20780;-87
2022/12/13 18:08:37;;;;;;;18.97;9.17;;;;;;;-6.03;100.00;95256.25;5016888;28;20483;-87
2022/12/13 18:11:04;;;;;;;17.37;9.03;;;;;;;-5.98;100.00;95240.63;5017435;28;20467;-87
2022/12/13 18:13:30;;;;;;;16.57;8.10;;;;;;;-5.97;100.00;95243.13;5068938;28;20474;-87
2022/12/13 18:15:56;;;;;;;19.17;9.53;;;;;;;-5.97;100.00;95238.00;5076079;28;20458;-87
2022/12/13 18:18:22;;;;;;;13.57;7.83;;;;;;;-5.94;100.00;95234.44;5061672;28;20458;-87
2022/12/13 18:20:49;;;;;;;17.57;8.53;;;;;;;-5.91;100.00;95234.22;5058428;28;20486;-87
2022/12/13 18:23:15;;;;;;;14.70;8.18;;;;;;;-5.87;100.00;95232.34;5046559;28;20024;-87
2022/12/13 18:25:41;;;;;;;14.47;7.53;;;;;;;-5.79;100.00;95225.88;5041092;28;20470;-87
2022/12/13 18:28:08;;;;;;;13.90;7.80;;;;;;;-5.72;100.00;95231.50;5051610;28;20443;-87
2022/12/13 18:30:36;;;;;;;17.47;8.00;;;;;;;-5.73;100.00;95222.16;5043224;28;20024;-87
2022/12/13 18:33:03;;;;;;;15.37;7.70;;;;;;;-5.77;100.00;95218.09;5014378;28;21525;-88
2022/12/13 18:35:31;;;;;;;18.35;7.70;;;;;;;-5.75;100.00;95224.81;5017623;28;20455;-87
